sensor_id;sensor_type;location;lat;lon;timestamp;temperature;humidity
7077;DHT22;3579;48.956;9.154;2022-07-04T00:00:30;28.80;51.00
7077;DHT22;3579;48.956;9.154;2022-07-04T00:02:56;28.80;51.00
7077;DHT22;3579;48.956;9.154;2022-07-04T00:05:22;28.80;50.90
7077;DHT22;3579;48.956;9.154;2022-07-04T00:07:49;28.80;51.00
7077;DHT22;3579;48.956;9.154;2022-07-04T00:10:18;28.80;50.90
7077;DHT22;3579;48.956;9.154;2022-07-04T00:12:45;28.80;50.90
7077;DHT22;3579;48.956;9.154;2022-07-04T00:15:11;28.80;50.90
7077;DHT22;3579;48.956;9.154;2022-07-04T00:17:38;28.80;50.80
7077;DHT22;3579;48.956;9.154;2022-07-04T00:20:05;28.80;50.90
7077;DHT22;3579;48.956;9.154;2022-07-04T00:22:31;28.80;50.90
7077;DHT22;3579;48.956;9.154;2022-07-04T00:24:57;28.80;50.90
7077;DHT22;3579;48.956;9.154;2022-07-04T00:27:23;28.80;50.90
7077;DHT22;3579;48.956;9.154;2022-07-04T00:29:50;28.80;50.90
7077;DHT22;3579;48.956;9.154;2022-07-04T00:32:16;28.80;50.90
7077;DHT22;3579;48.956;9.154;2022-07-04T00:34:42;28.80;51.00
7077;DHT22;3579;48.956;9.154;2022-07-04T00:37:08;28.80;51.00
7077;DHT22;3579;48.956;9.154;2022-07-04T00:39:34;28.80;51.00
7077;DHT22;3579;48.956;9.154;2022-07-04T00:42:00;28.70;50.90
7077;DHT22;3579;48.956;9.154;2022-07-04T00:44:26;28.80;51.00
7077;DHT22;3579;48.956;9.154;2022-07-04T00:46:52;28.70;51.00
7077;DHT22;3579;48.956;9.154;2022-07-04T00:49:18;28.70;51.00
7077;DHT22;3579;48.956;9.154;2022-07-04T00:51:45;28.70;51.00
7077;DHT22;3579;48.956;9.154;2022-07-04T00:54:13;28.70;51.00
7077;DHT22;3579;48.956;9.154;2022-07-04T00:56:42;28.70;51.00
7077;DHT22;3579;48.956;9.154;2022-07-04T00:59:09;28.70;51.10
7077;DHT22;3579;48.956;9.154;2022-07-04T01:01:35;28.70;51.00
7077;DHT22;3579;48.956;9.154;2022-07-04T01:04:03;28.70;51.10
7077;DHT22;3579;48.956;9.154;2022-07-04T01:06:30;28.70;51.10
7077;DHT22;3579;48.956;9.154;2022-07-04T01:08:57;28.70;51.10
7077;DHT22;3579;48.956;9.154;2022-07-04T01:11:23;28.70;51.10
7077;DHT22;3579;48.956;9.154;2022-07-04T01:13:49;28.70;51.10
7077;DHT22;3579;48.956;9.154;2022-07-04T01:16:15;28.70;51.20
7077;DHT22;3579;48.956;9.154;2022-07-04T01:18:41;28.70;51.10
7077;DHT22;3579;48.956;9.154;2022-07-04T01:21:08;28.60;51.10
7077;DHT22;3579;48.956;9.154;2022-07-04T01:23:38;28.60;51.10
7077;DHT22;3579;48.956;9.154;2022-07-04T01:26:05;28.60;51.10
7077;DHT22;3579;48.956;9.154;2022-07-04T01:28:31;28.60;51.10
7077;DHT22;3579;48.956;9.154;2022-07-04T01:30:57;28.60;51.00
7077;DHT22;3579;48.956;9.154;2022-07-04T01:33:23;28.60;51.10
7077;DHT22;3579;48.956;9.154;2022-07-04T01:35:49;28.60;51.10
7077;DHT22;3579;48.956;9.154;2022-07-04T01:38:16;28.60;51.10
7077;DHT22;3579;48.956;9.154;2022-07-04T01:40:41;28.60;51.20
7077;DHT22;3579;48.956;9.154;2022-07-04T01:43:07;28.60;51.20
7077;DHT22;3579;48.956;9.154;2022-07-04T01:45:34;28.60;51.20
7077;DHT22;3579;48.956;9.154;2022-07-04T01:48:10;28.60;51.10
7077;DHT22;3579;48.956;9.154;2022-07-04T01:50:37;28.60;51.20
7077;DHT22;3579;48.956;9.154;2022-07-04T01:53:03;28.60;51.20
7077;DHT22;3579;48.956;9.154;2022-07-04T01:55:30;28.60;51.20
7077;DHT22;3579;48.956;9.154;2022-07-04T01:57:56;28.60;51.20
7077;DHT22;3579;48.956;9.154;2022-07-04T02:00:23;28.60;51.20
7077;DHT22;3579;48.956;9.154;2022-07-04T02:03:07;28.50;51.20
7077;DHT22;3579;48.956;9.154;2022-07-04T02:05:33;28.50;51.20
7077;DHT22;3579;48.956;9.154;2022-07-04T02:07:59;28.50;51.70
7077;DHT22;3579;48.956;9.154;2022-07-04T02:10:25;28.50;51.20
7077;DHT22;3579;48.956;9.154;2022-07-04T02:12:51;28.50;51.30
7077;DHT22;3579;48.956;9.154;2022-07-04T02:15:34;28.60;51.30
7077;DHT22;3579;48.956;9.154;2022-07-04T02:18:05;28.50;51.30
7077;DHT22;3579;48.956;9.154;2022-07-04T02:20:32;28.50;51.30
7077;DHT22;3579;48.956;9.154;2022-07-04T02:22:59;28.50;51.30
7077;DHT22;3579;48.956;9.154;2022-07-04T02:25:25;28.50;51.30
7077;DHT22;3579;48.956;9.154;2022-07-04T02:27:51;28.50;51.30
7077;DHT22;3579;48.956;9.154;2022-07-04T02:30:17;28.50;51.30
7077;DHT22;3579;48.956;9.154;2022-07-04T02:32:43;28.50;51.30
7077;DHT22;3579;48.956;9.154;2022-07-04T02:35:10;28.50;51.30
7077;DHT22;3579;48.956;9.154;2022-07-04T02:37:37;28.50;51.30
7077;DHT22;3579;48.956;9.154;2022-07-04T02:40:04;28.50;51.30
7077;DHT22;3579;48.956;9.154;2022-07-04T02:42:32;28.40;51.30
7077;DHT22;3579;48.956;9.154;2022-07-04T02:44:58;28.40;51.30
7077;DHT22;3579;48.956;9.154;2022-07-04T02:47:24;28.40;51.40
7077;DHT22;3579;48.956;9.154;2022-07-04T02:49:50;28.40;51.40
7077;DHT22;3579;48.956;9.154;2022-07-04T02:52:16;28.40;51.40
7077;DHT22;3579;48.956;9.154;2022-07-04T02:54:42;28.40;51.40
7077;DHT22;3579;48.956;9.154;2022-07-04T02:57:08;28.40;51.40
7077;DHT22;3579;48.956;9.154;2022-07-04T02:59:34;28.40;51.40
7077;DHT22;3579;48.956;9.154;2022-07-04T03:02:00;28.40;51.40
7077;DHT22;3579;48.956;9.154;2022-07-04T03:04:26;28.40;51.40
7077;DHT22;3579;48.956;9.154;2022-07-04T03:06:52;28.40;51.50
7077;DHT22;3579;48.956;9.154;2022-07-04T03:09:18;28.40;51.50
7077;DHT22;3579;48.956;9.154;2022-07-04T03:11:45;28.40;51.40
7077;DHT22;3579;48.956;9.154;2022-07-04T03:14:11;28.40;51.50
7077;DHT22;3579;48.956;9.154;2022-07-04T03:16:37;28.30;51.40
7077;DHT22;3579;48.956;9.154;2022-07-04T03:19:03;28.40;51.50
7077;DHT22;3579;48.956;9.154;2022-07-04T03:21:29;28.30;51.40
7077;DHT22;3579;48.956;9.154;2022-07-04T03:23:55;28.30;51.50
7077;DHT22;3579;48.956;9.154;2022-07-04T03:26:28;28.30;51.60
7077;DHT22;3579;48.956;9.154;2022-07-04T03:28:58;28.30;51.50
7077;DHT22;3579;48.956;9.154;2022-07-04T03:31:24;28.30;51.50
7077;DHT22;3579;48.956;9.154;2022-07-04T03:33:51;28.30;51.60
7077;DHT22;3579;48.956;9.154;2022-07-04T03:36:18;28.30;51.60
7077;DHT22;3579;48.956;9.154;2022-07-04T03:38:44;28.30;51.50
7077;DHT22;3579;48.956;9.154;2022-07-04T03:41:10;28.30;51.50
7077;DHT22;3579;48.956;9.154;2022-07-04T03:43:37;28.30;51.60
7077;DHT22;3579;48.956;9.154;2022-07-04T03:46:03;28.30;51.50
7077;DHT22;3579;48.956;9.154;2022-07-04T03:48:29;28.30;51.60
7077;DHT22;3579;48.956;9.154;2022-07-04T03:50:55;28.30;51.50
7077;DHT22;3579;48.956;9.154;2022-07-04T03:53:21;28.30;51.60
7077;DHT22;3579;48.956;9.154;2022-07-04T03:55:47;28.30;51.60
7077;DHT22;3579;48.956;9.154;2022-07-04T03:58:13;28.20;51.60
7077;DHT22;3579;48.956;9.154;2022-07-04T04:00:39;28.30;51.60
7077;DHT22;3579;48.956;9.154;2022-07-04T04:03:08;28.20;51.60
7077;DHT22;3579;48.956;9.154;2022-07-04T04:05:53;28.30;51.70
7077;DHT22;3579;48.956;9.154;2022-07-04T04:08:19;28.30;51.70
7077;DHT22;3579;48.956;9.154;2022-07-04T04:10:45;28.30;51.60
7077;DHT22;3579;48.956;9.154;2022-07-04T04:13:11;28.30;51.60
7077;DHT22;3579;48.956;9.154;2022-07-04T04:15:37;28.30;51.70
7077;DHT22;3579;48.956;9.154;2022-07-04T04:18:03;28.20;51.60
7077;DHT22;3579;48.956;9.154;2022-07-04T04:20:29;28.30;51.70
7077;DHT22;3579;48.956;9.154;2022-07-04T04:22:55;28.20;51.60
7077;DHT22;3579;48.956;9.154;2022-07-04T04:25:21;28.30;51.60
7077;DHT22;3579;48.956;9.154;2022-07-04T04:27:47;28.30;52.00
7077;DHT22;3579;48.956;9.154;2022-07-04T04:30:13;28.30;51.40
7077;DHT22;3579;48.956;9.154;2022-07-04T04:32:39;28.30;51.50
7077;DHT22;3579;48.956;9.154;2022-07-04T04:35:05;28.30;51.40
7077;DHT22;3579;48.956;9.154;2022-07-04T04:37:31;28.40;51.30
7077;DHT22;3579;48.956;9.154;2022-07-04T04:39:57;28.40;51.40
7077;DHT22;3579;48.956;9.154;2022-07-04T04:42:23;28.50;51.30
7077;DHT22;3579;48.956;9.154;2022-07-04T04:44:49;28.50;51.30
7077;DHT22;3579;48.956;9.154;2022-07-04T04:47:15;28.60;51.20
7077;DHT22;3579;48.956;9.154;2022-07-04T04:49:41;28.60;51.10
7077;DHT22;3579;48.956;9.154;2022-07-04T04:52:07;28.60;51.20
7077;DHT22;3579;48.956;9.154;2022-07-04T04:54:34;28.60;51.10
7077;DHT22;3579;48.956;9.154;2022-07-04T04:57:00;28.60;51.10
7077;DHT22;3579;48.956;9.154;2022-07-04T04:59:28;28.60;51.00
7077;DHT22;3579;48.956;9.154;2022-07-04T05:01:56;28.60;50.20
7077;DHT22;3579;48.956;9.154;2022-07-04T05:04:22;28.50;50.00
7077;DHT22;3579;48.956;9.154;2022-07-04T05:06:48;28.40;49.70
7077;DHT22;3579;48.956;9.154;2022-07-04T05:09:14;28.40;50.00
7077;DHT22;3579;48.956;9.154;2022-07-04T05:11:41;28.30;50.30
7077;DHT22;3579;48.956;9.154;2022-07-04T05:14:07;28.30;49.50
7077;DHT22;3579;48.956;9.154;2022-07-04T05:16:33;28.30;49.30
7077;DHT22;3579;48.956;9.154;2022-07-04T05:18:59;28.30;49.10
7077;DHT22;3579;48.956;9.154;2022-07-04T05:21:27;28.30;49.00
7077;DHT22;3579;48.956;9.154;2022-07-04T05:23:54;28.30;48.80
7077;DHT22;3579;48.956;9.154;2022-07-04T05:26:21;28.20;48.70
7077;DHT22;3579;48.956;9.154;2022-07-04T05:28:47;28.20;48.60
7077;DHT22;3579;48.956;9.154;2022-07-04T05:31:13;28.20;48.50
7077;DHT22;3579;48.956;9.154;2022-07-04T05:33:39;28.20;48.30
7077;DHT22;3579;48.956;9.154;2022-07-04T05:36:05;28.20;48.10
7077;DHT22;3579;48.956;9.154;2022-07-04T05:38:31;28.30;48.00
7077;DHT22;3579;48.956;9.154;2022-07-04T05:40:58;28.30;47.80
7077;DHT22;3579;48.956;9.154;2022-07-04T05:43:24;28.30;47.60
7077;DHT22;3579;48.956;9.154;2022-07-04T05:45:53;28.30;47.60
7077;DHT22;3579;48.956;9.154;2022-07-04T05:48:19;28.30;47.40
7077;DHT22;3579;48.956;9.154;2022-07-04T05:50:45;28.30;47.20
7077;DHT22;3579;48.956;9.154;2022-07-04T05:53:11;28.40;47.20
7077;DHT22;3579;48.956;9.154;2022-07-04T05:55:38;28.30;47.10
7077;DHT22;3579;48.956;9.154;2022-07-04T05:58:04;28.40;47.20
7077;DHT22;3579;48.956;9.154;2022-07-04T06:00:30;28.40;47.00
7077;DHT22;3579;48.956;9.154;2022-07-04T06:02:56;28.30;47.00
7077;DHT22;3579;48.956;9.154;2022-07-04T06:05:22;28.30;47.20
7077;DHT22;3579;48.956;9.154;2022-07-04T06:07:48;28.20;47.20
7077;DHT22;3579;48.956;9.154;2022-07-04T06:10:14;28.10;47.40
7077;DHT22;3579;48.956;9.154;2022-07-04T06:12:40;28.10;47.20
7077;DHT22;3579;48.956;9.154;2022-07-04T06:15:07;28.10;47.20
7077;DHT22;3579;48.956;9.154;2022-07-04T06:17:36;28.00;47.20
7077;DHT22;3579;48.956;9.154;2022-07-04T06:20:03;28.10;47.20
7077;DHT22;3579;48.956;9.154;2022-07-04T06:22:42;28.10;47.20
7077;DHT22;3579;48.956;9.154;2022-07-04T06:25:12;28.10;47.20
7077;DHT22;3579;48.956;9.154;2022-07-04T06:27:39;28.10;47.20
7077;DHT22;3579;48.956;9.154;2022-07-04T06:30:06;27.00;48.00
7077;DHT22;3579;48.956;9.154;2022-07-04T06:32:44;24.90;52.60
7077;DHT22;3579;48.956;9.154;2022-07-04T06:35:11;24.30;53.80
7077;DHT22;3579;48.956;9.154;2022-07-04T06:37:56;24.60;54.10
7077;DHT22;3579;48.956;9.154;2022-07-04T06:40:23;24.70;54.00
7077;DHT22;3579;48.956;9.154;2022-07-04T06:42:50;24.10;54.90
7077;DHT22;3579;48.956;9.154;2022-07-04T06:45:17;24.00;55.50
7077;DHT22;3579;48.956;9.154;2022-07-04T06:47:44;23.90;55.90
7077;DHT22;3579;48.956;9.154;2022-07-04T06:50:10;24.40;55.10
7077;DHT22;3579;48.956;9.154;2022-07-04T06:52:37;24.50;54.50
7077;DHT22;3579;48.956;9.154;2022-07-04T06:55:04;24.80;54.10
7077;DHT22;3579;48.956;9.154;2022-07-04T06:57:30;25.10;53.50
7077;DHT22;3579;48.956;9.154;2022-07-04T06:59:57;25.20;53.20
7077;DHT22;3579;48.956;9.154;2022-07-04T07:02:23;24.90;53.90
7077;DHT22;3579;48.956;9.154;2022-07-04T07:04:50;25.00;53.80
7077;DHT22;3579;48.956;9.154;2022-07-04T07:07:16;25.10;53.40
7077;DHT22;3579;48.956;9.154;2022-07-04T07:09:43;25.10;53.20
7077;DHT22;3579;48.956;9.154;2022-07-04T07:12:09;25.30;52.90
7077;DHT22;3579;48.956;9.154;2022-07-04T07:14:36;25.50;52.60
7077;DHT22;3579;48.956;9.154;2022-07-04T07:17:02;25.50;52.80
7077;DHT22;3579;48.956;9.154;2022-07-04T07:19:28;25.30;53.00
7077;DHT22;3579;48.956;9.154;2022-07-04T07:21:55;24.70;53.50
7077;DHT22;3579;48.956;9.154;2022-07-04T07:24:21;24.50;55.00
7077;DHT22;3579;48.956;9.154;2022-07-04T07:26:49;24.30;55.00
7077;DHT22;3579;48.956;9.154;2022-07-04T07:29:15;24.80;54.20
7077;DHT22;3579;48.956;9.154;2022-07-04T07:31:41;24.90;53.50
7077;DHT22;3579;48.956;9.154;2022-07-04T07:34:08;25.00;53.30
7077;DHT22;3579;48.956;9.154;2022-07-04T07:36:34;25.00;53.20
7077;DHT22;3579;48.956;9.154;2022-07-04T07:39:00;24.40;53.80
7077;DHT22;3579;48.956;9.154;2022-07-04T07:41:26;24.30;54.80
7077;DHT22;3579;48.956;9.154;2022-07-04T07:43:53;24.40;54.80
7077;DHT22;3579;48.956;9.154;2022-07-04T07:46:19;24.20;54.70
7077;DHT22;3579;48.956;9.154;2022-07-04T07:48:45;23.80;55.00
7077;DHT22;3579;48.956;9.154;2022-07-04T07:51:12;23.90;55.90
7077;DHT22;3579;48.956;9.154;2022-07-04T07:53:39;24.10;55.40
7077;DHT22;3579;48.956;9.154;2022-07-04T07:56:06;24.00;55.60
7077;DHT22;3579;48.956;9.154;2022-07-04T07:58:32;24.30;55.10
7077;DHT22;3579;48.956;9.154;2022-07-04T08:00:58;24.40;54.70
7077;DHT22;3579;48.956;9.154;2022-07-04T08:03:24;23.90;54.90
7077;DHT22;3579;48.956;9.154;2022-07-04T08:06:10;23.70;55.60
7077;DHT22;3579;48.956;9.154;2022-07-04T08:08:37;23.60;55.70
7077;DHT22;3579;48.956;9.154;2022-07-04T08:11:04;23.70;55.60
7077;DHT22;3579;48.956;9.154;2022-07-04T08:13:30;24.20;54.90
7077;DHT22;3579;48.956;9.154;2022-07-04T08:15:57;24.70;54.20
7077;DHT22;3579;48.956;9.154;2022-07-04T08:18:23;25.10;53.50
7077;DHT22;3579;48.956;9.154;2022-07-04T08:20:50;25.40;52.90
7077;DHT22;3579;48.956;9.154;2022-07-04T08:23:16;25.60;52.60
7077;DHT22;3579;48.956;9.154;2022-07-04T08:25:42;25.80;52.20
7077;DHT22;3579;48.956;9.154;2022-07-04T08:28:09;26.00;51.80
7077;DHT22;3579;48.956;9.154;2022-07-04T08:30:35;26.10;51.90
7077;DHT22;3579;48.956;9.154;2022-07-04T08:33:01;26.20;51.70
7077;DHT22;3579;48.956;9.154;2022-07-04T08:35:28;26.30;51.60
7077;DHT22;3579;48.956;9.154;2022-07-04T08:37:54;26.30;51.50
7077;DHT22;3579;48.956;9.154;2022-07-04T08:40:22;26.40;51.50
7077;DHT22;3579;48.956;9.154;2022-07-04T08:42:49;26.40;51.40
7077;DHT22;3579;48.956;9.154;2022-07-04T08:45:16;26.50;51.50
7077;DHT22;3579;48.956;9.154;2022-07-04T08:47:44;26.50;51.20
7077;DHT22;3579;48.956;9.154;2022-07-04T08:50:18;26.60;51.70
7077;DHT22;3579;48.956;9.154;2022-07-04T08:53:00;26.60;51.00
7077;DHT22;3579;48.956;9.154;2022-07-04T08:55:28;26.70;51.60
7077;DHT22;3579;48.956;9.154;2022-07-04T08:58:30;26.70;50.90
7077;DHT22;3579;48.956;9.154;2022-07-04T09:02:27;26.80;51.00
7077;DHT22;3579;48.956;9.154;2022-07-04T09:05:28;26.80;51.00
7077;DHT22;3579;48.956;9.154;2022-07-04T09:08:02;26.90;50.80
7077;DHT22;3579;48.956;9.154;2022-07-04T09:10:36;27.00;50.50
7077;DHT22;3579;48.956;9.154;2022-07-04T09:13:11;27.10;50.00
7077;DHT22;3579;48.956;9.154;2022-07-04T09:15:51;27.10;49.90
7077;DHT22;3579;48.956;9.154;2022-07-04T09:18:38;27.10;50.00
7077;DHT22;3579;48.956;9.154;2022-07-04T09:21:48;27.20;49.70
7077;DHT22;3579;48.956;9.154;2022-07-04T09:24:15;27.20;49.40
7077;DHT22;3579;48.956;9.154;2022-07-04T09:26:47;27.30;49.30
7077;DHT22;3579;48.956;9.154;2022-07-04T09:29:13;27.20;49.40
7077;DHT22;3579;48.956;9.154;2022-07-04T09:31:40;27.30;49.60
7077;DHT22;3579;48.956;9.154;2022-07-04T09:34:07;27.40;49.60
7077;DHT22;3579;48.956;9.154;2022-07-04T09:36:38;27.40;49.40
7077;DHT22;3579;48.956;9.154;2022-07-04T09:39:06;27.50;49.40
7077;DHT22;3579;48.956;9.154;2022-07-04T09:42:02;27.50;49.40
7077;DHT22;3579;48.956;9.154;2022-07-04T09:44:48;27.60;49.40
7077;DHT22;3579;48.956;9.154;2022-07-04T09:47:23;27.60;49.30
7077;DHT22;3579;48.956;9.154;2022-07-04T09:50:14;27.70;49.20
7077;DHT22;3579;48.956;9.154;2022-07-04T09:52:53;27.60;48.50
7077;DHT22;3579;48.956;9.154;2022-07-04T09:55:43;27.40;49.00
7077;DHT22;3579;48.956;9.154;2022-07-04T09:58:15;27.40;48.50
7077;DHT22;3579;48.956;9.154;2022-07-04T10:00:45;27.60;48.60
7077;DHT22;3579;48.956;9.154;2022-07-04T10:03:19;27.70;48.60
7077;DHT22;3579;48.956;9.154;2022-07-04T10:06:13;27.80;48.60
7077;DHT22;3579;48.956;9.154;2022-07-04T10:08:43;27.80;48.60
7077;DHT22;3579;48.956;9.154;2022-07-04T10:11:10;27.90;48.60
7077;DHT22;3579;48.956;9.154;2022-07-04T10:13:37;27.90;48.30
7077;DHT22;3579;48.956;9.154;2022-07-04T10:16:04;27.90;48.30
7077;DHT22;3579;48.956;9.154;2022-07-04T10:18:30;28.00;48.20
7077;DHT22;3579;48.956;9.154;2022-07-04T10:20:57;28.00;48.30
7077;DHT22;3579;48.956;9.154;2022-07-04T10:23:24;28.00;47.70
7077;DHT22;3579;48.956;9.154;2022-07-04T10:25:57;28.00;47.80
7077;DHT22;3579;48.956;9.154;2022-07-04T10:28:24;28.00;48.00
7077;DHT22;3579;48.956;9.154;2022-07-04T10:30:52;28.10;48.20
7077;DHT22;3579;48.956;9.154;2022-07-04T10:33:23;28.10;48.20
7077;DHT22;3579;48.956;9.154;2022-07-04T10:35:53;28.20;48.30
7077;DHT22;3579;48.956;9.154;2022-07-04T10:38:32;28.20;48.30
7077;DHT22;3579;48.956;9.154;2022-07-04T10:41:05;28.30;48.40
7077;DHT22;3579;48.956;9.154;2022-07-04T10:48:59;28.40;48.30
7077;DHT22;3579;48.956;9.154;2022-07-04T10:51:41;28.40;48.30
7077;DHT22;3579;48.956;9.154;2022-07-04T10:54:29;28.50;48.40
7077;DHT22;3579;48.956;9.154;2022-07-04T10:57:21;28.40;48.40
7077;DHT22;3579;48.956;9.154;2022-07-04T11:02:22;28.60;48.60
7077;DHT22;3579;48.956;9.154;2022-07-04T11:05:06;28.60;48.50
7077;DHT22;3579;48.956;9.154;2022-07-04T11:20:26;28.80;48.50
7077;DHT22;3579;48.956;9.154;2022-07-04T11:23:09;28.80;48.50
7077;DHT22;3579;48.956;9.154;2022-07-04T11:25:36;28.90;48.50
7077;DHT22;3579;48.956;9.154;2022-07-04T11:30:54;29.00;48.60
7077;DHT22;3579;48.956;9.154;2022-07-04T11:33:27;29.00;48.10
7077;DHT22;3579;48.956;9.154;2022-07-04T11:36:04;28.80;46.50
7077;DHT22;3579;48.956;9.154;2022-07-04T11:38:47;28.90;47.10
7077;DHT22;3579;48.956;9.154;2022-07-04T11:41:14;28.90;47.40
7077;DHT22;3579;48.956;9.154;2022-07-04T11:44:06;29.00;47.80
7077;DHT22;3579;48.956;9.154;2022-07-04T11:47:04;29.00;47.80
7077;DHT22;3579;48.956;9.154;2022-07-04T11:49:32;29.10;48.00
7077;DHT22;3579;48.956;9.154;2022-07-04T11:51:59;29.10;48.00
7077;DHT22;3579;48.956;9.154;2022-07-04T11:54:25;29.10;48.10
7077;DHT22;3579;48.956;9.154;2022-07-04T11:56:52;29.20;48.30
7077;DHT22;3579;48.956;9.154;2022-07-04T11:59:19;29.20;48.20
7077;DHT22;3579;48.956;9.154;2022-07-04T12:01:46;29.20;48.50
7077;DHT22;3579;48.956;9.154;2022-07-04T12:04:14;29.20;48.90
7077;DHT22;3579;48.956;9.154;2022-07-04T12:06:42;29.30;48.70
7077;DHT22;3579;48.956;9.154;2022-07-04T12:09:09;29.30;48.70
7077;DHT22;3579;48.956;9.154;2022-07-04T12:16:42;29.30;48.90
7077;DHT22;3579;48.956;9.154;2022-07-04T12:19:09;29.30;48.90
7077;DHT22;3579;48.956;9.154;2022-07-04T12:21:36;29.30;48.90
7077;DHT22;3579;48.956;9.154;2022-07-04T12:24:04;29.30;49.10
7077;DHT22;3579;48.956;9.154;2022-07-04T12:26:31;29.40;49.10
7077;DHT22;3579;48.956;9.154;2022-07-04T12:28:58;29.40;49.00
7077;DHT22;3579;48.956;9.154;2022-07-04T12:31:42;29.40;49.00
7077;DHT22;3579;48.956;9.154;2022-07-04T12:34:17;29.50;49.20
7077;DHT22;3579;48.956;9.154;2022-07-04T12:36:55;29.50;49.00
7077;DHT22;3579;48.956;9.154;2022-07-04T12:39:36;29.50;49.50
7077;DHT22;3579;48.956;9.154;2022-07-04T12:42:07;29.50;49.40
7077;DHT22;3579;48.956;9.154;2022-07-04T12:44:35;29.50;49.70
7077;DHT22;3579;48.956;9.154;2022-07-04T12:47:03;28.80;46.90
7077;DHT22;3579;48.956;9.154;2022-07-04T12:49:30;28.30;47.30
7077;DHT22;3579;48.956;9.154;2022-07-04T12:52:12;27.90;47.20
7077;DHT22;3579;48.956;9.154;2022-07-04T12:54:41;27.80;47.40
7077;DHT22;3579;48.956;9.154;2022-07-04T12:57:11;27.90;48.10
7077;DHT22;3579;48.956;9.154;2022-07-04T12:59:39;28.10;47.70
7077;DHT22;3579;48.956;9.154;2022-07-04T13:02:07;28.40;47.10
7077;DHT22;3579;48.956;9.154;2022-07-04T13:04:38;28.60;46.20
7077;DHT22;3579;48.956;9.154;2022-07-04T13:07:13;28.60;46.30
7077;DHT22;3579;48.956;9.154;2022-07-04T13:09:46;28.40;46.60
7077;DHT22;3579;48.956;9.154;2022-07-04T13:12:13;28.10;46.90
7077;DHT22;3579;48.956;9.154;2022-07-04T13:14:51;28.10;46.70
7077;DHT22;3579;48.956;9.154;2022-07-04T13:17:21;28.10;46.90
7077;DHT22;3579;48.956;9.154;2022-07-04T13:19:49;28.20;47.20
7077;DHT22;3579;48.956;9.154;2022-07-04T13:22:42;28.10;47.40
7077;DHT22;3579;48.956;9.154;2022-07-04T13:25:09;27.80;47.60
7077;DHT22;3579;48.956;9.154;2022-07-04T13:27:38;27.80;47.70
7077;DHT22;3579;48.956;9.154;2022-07-04T13:30:20;27.80;47.90
7077;DHT22;3579;48.956;9.154;2022-07-04T13:32:50;27.90;47.80
7077;DHT22;3579;48.956;9.154;2022-07-04T13:35:20;27.80;47.90
7077;DHT22;3579;48.956;9.154;2022-07-04T13:37:46;27.60;47.90
7077;DHT22;3579;48.956;9.154;2022-07-04T13:40:12;27.70;47.50
7077;DHT22;3579;48.956;9.154;2022-07-04T13:42:38;27.80;48.00
7077;DHT22;3579;48.956;9.154;2022-07-04T13:45:23;27.80;47.60
7077;DHT22;3579;48.956;9.154;2022-07-04T13:47:50;27.70;47.50
7077;DHT22;3579;48.956;9.154;2022-07-04T13:50:16;27.60;47.20
7077;DHT22;3579;48.956;9.154;2022-07-04T13:52:42;27.70;47.50
7077;DHT22;3579;48.956;9.154;2022-07-04T13:55:09;27.90;47.10
7077;DHT22;3579;48.956;9.154;2022-07-04T13:57:36;28.00;46.70
7077;DHT22;3579;48.956;9.154;2022-07-04T14:00:06;27.90;47.10
7077;DHT22;3579;48.956;9.154;2022-07-04T14:02:34;27.50;47.90
7077;DHT22;3579;48.956;9.154;2022-07-04T14:05:00;27.40;48.10
7077;DHT22;3579;48.956;9.154;2022-07-04T14:07:26;27.00;48.50
7077;DHT22;3579;48.956;9.154;2022-07-04T14:09:54;27.20;48.30
7077;DHT22;3579;48.956;9.154;2022-07-04T14:12:20;27.50;47.90
7077;DHT22;3579;48.956;9.154;2022-07-04T14:14:46;27.70;47.60
7077;DHT22;3579;48.956;9.154;2022-07-04T14:17:12;28.00;47.40
7077;DHT22;3579;48.956;9.154;2022-07-04T14:19:39;28.10;47.20
7077;DHT22;3579;48.956;9.154;2022-07-04T14:22:05;28.20;47.20
7077;DHT22;3579;48.956;9.154;2022-07-04T14:24:31;28.30;47.20
7077;DHT22;3579;48.956;9.154;2022-07-04T14:26:57;28.40;47.30
7077;DHT22;3579;48.956;9.154;2022-07-04T14:29:23;28.40;47.20
7077;DHT22;3579;48.956;9.154;2022-07-04T14:31:50;28.50;47.40
7077;DHT22;3579;48.956;9.154;2022-07-04T14:34:18;28.60;47.40
7077;DHT22;3579;48.956;9.154;2022-07-04T14:36:44;28.60;47.30
7077;DHT22;3579;48.956;9.154;2022-07-04T14:39:11;28.60;47.40
7077;DHT22;3579;48.956;9.154;2022-07-04T14:41:37;28.60;47.40
7077;DHT22;3579;48.956;9.154;2022-07-04T14:44:03;28.70;47.40
7077;DHT22;3579;48.956;9.154;2022-07-04T14:46:29;28.70;47.40
7077;DHT22;3579;48.956;9.154;2022-07-04T14:48:56;28.80;47.40
7077;DHT22;3579;48.956;9.154;2022-07-04T14:51:23;28.80;47.50
7077;DHT22;3579;48.956;9.154;2022-07-04T14:53:51;28.80;47.40
7077;DHT22;3579;48.956;9.154;2022-07-04T14:56:17;28.80;47.10
7077;DHT22;3579;48.956;9.154;2022-07-04T14:58:45;28.80;47.00
7077;DHT22;3579;48.956;9.154;2022-07-04T15:01:11;28.80;46.90
7077;DHT22;3579;48.956;9.154;2022-07-04T15:03:37;28.80;47.00
7077;DHT22;3579;48.956;9.154;2022-07-04T15:06:04;28.90;46.60
7077;DHT22;3579;48.956;9.154;2022-07-04T15:08:30;28.90;46.80
7077;DHT22;3579;48.956;9.154;2022-07-04T15:10:56;28.80;46.90
7077;DHT22;3579;48.956;9.154;2022-07-04T15:13:22;28.90;46.20
7077;DHT22;3579;48.956;9.154;2022-07-04T15:15:48;28.90;46.40
7077;DHT22;3579;48.956;9.154;2022-07-04T15:18:15;28.90;46.70
7077;DHT22;3579;48.956;9.154;2022-07-04T15:20:41;28.90;46.40
7077;DHT22;3579;48.956;9.154;2022-07-04T15:23:26;29.00;45.50
7077;DHT22;3579;48.956;9.154;2022-07-04T15:26:11;29.00;45.30
7077;DHT22;3579;48.956;9.154;2022-07-04T15:28:37;29.00;44.90
7077;DHT22;3579;48.956;9.154;2022-07-04T15:31:03;29.00;46.20
7077;DHT22;3579;48.956;9.154;2022-07-04T15:33:29;29.00;46.40
7077;DHT22;3579;48.956;9.154;2022-07-04T15:35:57;29.10;45.70
7077;DHT22;3579;48.956;9.154;2022-07-04T15:38:23;29.10;44.80
7077;DHT22;3579;48.956;9.154;2022-07-04T15:40:50;28.90;43.00
7077;DHT22;3579;48.956;9.154;2022-07-04T15:43:16;28.60;40.10
7077;DHT22;3579;48.956;9.154;2022-07-04T15:45:44;28.40;38.70
7077;DHT22;3579;48.956;9.154;2022-07-04T15:48:10;28.20;38.30
7077;DHT22;3579;48.956;9.154;2022-07-04T15:50:37;28.00;38.50
7077;DHT22;3579;48.956;9.154;2022-07-04T15:53:03;27.90;38.00
7077;DHT22;3579;48.956;9.154;2022-07-04T15:55:30;27.70;37.70
7077;DHT22;3579;48.956;9.154;2022-07-04T15:57:56;27.70;38.50
7077;DHT22;3579;48.956;9.154;2022-07-04T16:00:22;27.70;38.40
7077;DHT22;3579;48.956;9.154;2022-07-04T16:02:49;27.80;38.80
7077;DHT22;3579;48.956;9.154;2022-07-04T16:05:17;27.90;38.80
7077;DHT22;3579;48.956;9.154;2022-07-04T16:07:43;28.00;38.50
7077;DHT22;3579;48.956;9.154;2022-07-04T16:10:09;27.60;38.00
7077;DHT22;3579;48.956;9.154;2022-07-04T16:12:35;27.60;39.20
7077;DHT22;3579;48.956;9.154;2022-07-04T16:15:02;27.80;39.30
7077;DHT22;3579;48.956;9.154;2022-07-04T16:17:29;28.10;39.30
7077;DHT22;3579;48.956;9.154;2022-07-04T16:19:55;28.20;39.90
7077;DHT22;3579;48.956;9.154;2022-07-04T16:22:20;28.40;40.20
7077;DHT22;3579;48.956;9.154;2022-07-04T16:24:46;28.40;40.80
7077;DHT22;3579;48.956;9.154;2022-07-04T16:27:12;28.50;41.30
7077;DHT22;3579;48.956;9.154;2022-07-04T16:29:38;28.50;41.60
7077;DHT22;3579;48.956;9.154;2022-07-04T16:32:05;28.60;41.80
7077;DHT22;3579;48.956;9.154;2022-07-04T16:34:31;28.60;41.80
7077;DHT22;3579;48.956;9.154;2022-07-04T16:36:57;28.60;41.80
7077;DHT22;3579;48.956;9.154;2022-07-04T16:39:23;28.60;41.90
7077;DHT22;3579;48.956;9.154;2022-07-04T16:41:49;28.60;41.90